POC weather

Brackett Field
La Verne, California, United States

Public forecast

Using degrees Fahrenheit for public forecast. Weather courtesy of forecast.io.

METAR (pilot weather report)

Retrieved 2019/06/20 03:47 UTC (2 hours ago):

KPOC 200347Z 24007KT 10SM CLR 19/14 A2997

TAF (pilot weather forecast)

Forecast is more than 12 hours old.

Closest forecast is Ontario International Airport, 9.3 nm (17.1 km) ESE. Retrieved 2019/06/19 00:30 UTC (1 day ago):

TAF KONT 192327Z 2000/2106 27010KT P6SM FEW040 FEW080 FM200500 25005KT P6SM SCT015 FM200900 VRB04KT 5SM BR OVC010 FM201800 VRB03KT 6SM HZ SCT012 FM202000 25012KT P6SM SKC FM210500 25005KT P6SM SCT015